44.9°F
Current conditions from King Hill
Updated every 5 minutes
 
  Tuesday September 23, 2014

Station Historical Data
Daily Summary for February 12, 2012 Units:  Both    English   Metric
« Previous Day
Next Day »
Daily Weekly Monthly Yearly Custom
  High: Low: Average:
Temperature: 11.8 °F /  -11.2 °C 1.4 °F /  -17 °C 5.5 °F /  -14.7 °C
Dew Point: 2.1 °F /  -16.6 °C -6.7 °F /  -21.5 °C -4 °F /  -20 °C
Humidity: 83% 52% 65%
Wind Speed: 8.0mph /  12.9km/h - 3.1mph /  5km/h
Wind Gust: 19.0mph /  30.6km/h - -
Wind- - NW
Pressure: 29.84 in /  1010.4 hPa 29.77 in /  1008 hPa -
Precipitation: 0.00 in /  0 mm    
Historical Graphs
 
 
Tabular Data for February 12, 2012
Time Temperature Dew Point Pressure Wind Wind Speed Wind Gust Humidity Daily Rainfall
00:00 4.4 °F /  -15.3 °C -2.1 °F /  -18.9 °C 29.79in /  1008.7hPa Calm   3.0mph /  4.8km/h 74% 0.00in /  0mm
00:05 4.4 °F /  -15.3 °C -2.1 °F /  -18.9 °C 29.79in /  1008.7hPa Calm   3.0mph /  4.8km/h 74% 0.00in /  0mm
00:10 4.7 °F /  -15.2 °C -1.8 °F /  -18.8 °C 29.79in /  1008.7hPa NNW 2.0mph /  3.2km/h 5.0mph /  8km/h 74% 0.00in /  0mm
00:15 4.9 °F /  -15.1 °C -1.9 °F /  -18.8 °C 29.79in /  1008.7hPa NNW 1.0mph /  1.6km/h 5.0mph /  8km/h 73% 0.00in /  0mm
00:20 5.1 °F /  -14.9 °C -2.0 °F /  -18.9 °C 29.79in /  1008.7hPa NNW 1.0mph /  1.6km/h 8.0mph /  12.9km/h 72% 0.00in /  0mm
00:25 5.1 °F /  -14.9 °C -2.0 °F /  -18.9 °C 29.79in /  1008.7hPa NW 2.0mph /  3.2km/h 8.0mph /  12.9km/h 72% 0.00in /  0mm
00:30 5.1 °F /  -14.9 °C -2.0 °F /  -18.9 °C 29.79in /  1008.7hPa NW 3.0mph /  4.8km/h 6.0mph /  9.7km/h 72% 0.00in /  0mm
00:35 5.0 °F /  -15 °C -2.3 °F /  -19.1 °C 29.79in /  1008.7hPa Calm   6.0mph /  9.7km/h 71% 0.00in /  0mm
00:40 5.1 °F /  -14.9 °C -2.5 °F /  -19.2 °C 29.79in /  1008.7hPa NW 1.0mph /  1.6km/h 6.0mph /  9.7km/h 70% 0.00in /  0mm
00:50 5.0 °F /  -15 °C -0.9 °F /  -18.3 °C 29.78in /  1008.4hPa NW 3.0mph /  4.8km/h 8.0mph /  12.9km/h 76% 0.00in /  0mm
00:55 5.1 °F /  -14.9 °C -3.2 °F /  -19.6 °C 29.78in /  1008.4hPa NW 5.0mph /  8km/h 9.0mph /  14.5km/h 68% 0.00in /  0mm
01:00 5.1 °F /  -14.9 °C -3.5 °F /  -19.7 °C 29.78in /  1008.4hPa NNW 3.0mph /  4.8km/h 9.0mph /  14.5km/h 67% 0.00in /  0mm
01:05 5.0 °F /  -15 °C -3.6 °F /  -19.8 °C 29.78in /  1008.4hPa NNW 4.0mph /  6.4km/h 9.0mph /  14.5km/h 67% 0.00in /  0mm
01:10 4.9 °F /  -15.1 °C -4.0 °F /  -20 °C 29.78in /  1008.4hPa NNW 3.0mph /  4.8km/h 9.0mph /  14.5km/h 66% 0.00in /  0mm
01:15 4.7 °F /  -15.2 °C -4.2 °F /  -20.1 °C 29.78in /  1008.4hPa NW 2.0mph /  3.2km/h 9.0mph /  14.5km/h 66% 0.00in /  0mm
01:20 4.6 °F /  -15.2 °C -4.3 °F /  -20.2 °C 29.78in /  1008.4hPa NW 3.0mph /  4.8km/h 8.0mph /  12.9km/h 66% 0.00in /  0mm
01:25 4.5 °F /  -15.3 °C -4.4 °F /  -20.2 °C 29.78in /  1008.4hPa NW 2.0mph /  3.2km/h 10.0mph /  16.1km/h 66% 0.00in /  0mm
01:30 4.5 °F /  -15.3 °C -4.7 °F /  -20.4 °C 29.78in /  1008.4hPa NW 5.0mph /  8km/h 10.0mph /  16.1km/h 65% 0.00in /  0mm
01:35 4.4 °F /  -15.3 °C -4.8 °F /  -20.4 °C 29.78in /  1008.4hPa NW 3.0mph /  4.8km/h 10.0mph /  16.1km/h 65% 0.00in /  0mm
01:40 4.2 °F /  -15.4 °C -5.0 °F /  -20.6 °C 29.78in /  1008.4hPa NNW 1.0mph /  1.6km/h 6.0mph /  9.7km/h 65% 0.00in /  0mm
01:50 4.0 °F /  -15.6 °C -5.2 °F /  -20.7 °C 29.78in /  1008.4hPa NW 2.0mph /  3.2km/h 8.0mph /  12.9km/h 65% 0.00in /  0mm
01:55 4.0 °F /  -15.6 °C -5.2 °F /  -20.7 °C 29.78in /  1008.4hPa NW 4.0mph /  6.4km/h 9.0mph /  14.5km/h 65% 0.00in /  0mm
02:00 4.0 °F /  -15.6 °C -5.2 °F /  -20.7 °C 29.78in /  1008.4hPa NW 1.0mph /  1.6km/h 9.0mph /  14.5km/h 65% 0.00in /  0mm
02:05 3.9 °F /  -15.6 °C -5.3 °F /  -20.7 °C 29.78in /  1008.4hPa NW 2.0mph /  3.2km/h 11.0mph /  17.7km/h 65% 0.00in /  0mm
02:10 3.9 °F /  -15.6 °C -5.6 °F /  -20.9 °C 29.78in /  1008.4hPa NNW 4.0mph /  6.4km/h 11.0mph /  17.7km/h 64% 0.00in /  0mm
02:15 3.8 °F /  -15.7 °C -5.7 °F /  -20.9 °C 29.78in /  1008.4hPa NW 1.0mph /  1.6km/h 9.0mph /  14.5km/h 64% 0.00in /  0mm
02:20 3.7 °F /  -15.7 °C -5.8 °F /  -21 °C 29.77in /  1008hPa NW 2.0mph /  3.2km/h 7.0mph /  11.3km/h 64% 0.00in /  0mm
02:24 3.7 °F /  -15.7 °C -5.8 °F /  -21 °C 29.77in /  1008hPa NW 3.0mph /  4.8km/h 8.0mph /  12.9km/h 64% 0.00in /  0mm
02:30 3.7 °F /  -15.7 °C -5.8 °F /  -21 °C 29.77in /  1008hPa NW 2.0mph /  3.2km/h 9.0mph /  14.5km/h 64% 0.00in /  0mm
02:35 3.7 °F /  -15.7 °C -5.8 °F /  -21 °C 29.77in /  1008hPa NNW 2.0mph /  3.2km/h 9.0mph /  14.5km/h 64% 0.00in /  0mm
02:40 3.6 °F /  -15.8 °C -5.9 °F /  -21.1 °C 29.77in /  1008hPa NNW 1.0mph /  1.6km/h 7.0mph /  11.3km/h 64% 0.00in /  0mm
02:45 3.6 °F /  -15.8 °C -5.5 °F /  -20.8 °C 29.77in /  1008hPa NW 1.0mph /  1.6km/h 6.0mph /  9.7km/h 65% 0.00in /  0mm
02:50 3.5 °F /  -15.8 °C -5.6 °F /  -20.9 °C 29.77in /  1008hPa Calm   6.0mph /  9.7km/h 65% 0.00in /  0mm
02:55 3.5 °F /  -15.8 °C -6.0 °F /  -21.1 °C 29.77in /  1008hPa NW 3.0mph /  4.8km/h 6.0mph /  9.7km/h 64% 0.00in /  0mm
03:00 3.6 °F /  -15.8 °C -5.9 °F /  -21.1 °C 29.77in /  1008hPa NW 3.0mph /  4.8km/h 6.0mph /  9.7km/h 64% 0.00in /  0mm
03:05 3.5 °F /  -15.8 °C -6.0 °F /  -21.1 °C 29.77in /  1008hPa NW 3.0mph /  4.8km/h 6.0mph /  9.7km/h 64% 0.00in /  0mm
03:10 3.5 °F /  -15.8 °C -6.0 °F /  -21.1 °C 29.77in /  1008hPa NW 1.0mph /  1.6km/h 6.0mph /  9.7km/h 64% 0.00in /  0mm
03:15 3.5 °F /  -15.8 °C -6.0 °F /  -21.1 °C 29.77in /  1008hPa NNW 2.0mph /  3.2km/h 7.0mph /  11.3km/h 64% 0.00in /  0mm
03:20 3.5 °F /  -15.8 °C -5.6 °F /  -20.9 °C 29.77in /  1008hPa NW 2.0mph /  3.2km/h 7.0mph /  11.3km/h 65% 0.00in /  0mm
03:25 3.5 °F /  -15.8 °C -5.6 °F /  -20.9 °C 29.77in /  1008hPa NNW 2.0mph /  3.2km/h 7.0mph /  11.3km/h 65% 0.00in /  0mm
03:30 3.4 °F /  -15.9 °C -5.7 °F /  -20.9 °C 29.77in /  1008hPa NNW 3.0mph /  4.8km/h 6.0mph /  9.7km/h 65% 0.00in /  0mm
03:35 3.5 °F /  -15.8 °C -5.6 °F /  -20.9 °C 29.77in /  1008hPa Calm   7.0mph /  11.3km/h 65% 0.00in /  0mm
03:40 3.6 °F /  -15.8 °C -5.2 °F /  -20.7 °C 29.77in /  1008hPa Calm   7.0mph /  11.3km/h 66% 0.00in /  0mm
03:50 3.9 °F /  -15.6 °C -4.9 °F /  -20.5 °C 29.77in /  1008hPa NW 2.0mph /  3.2km/h 6.0mph /  9.7km/h 66% 0.00in /  0mm
03:55 4.0 °F /  -15.6 °C -4.8 °F /  -20.4 °C 29.77in /  1008hPa NW 1.0mph /  1.6km/h 6.0mph /  9.7km/h 66% 0.00in /  0mm
04:00 4.2 °F /  -15.4 °C -4.6 °F /  -20.3 °C 29.77in /  1008hPa NW 1.0mph /  1.6km/h 9.0mph /  14.5km/h 66% 0.00in /  0mm
04:05 4.4 °F /  -15.3 °C -4.5 °F /  -20.3 °C 29.77in /  1008hPa NW 3.0mph /  4.8km/h 9.0mph /  14.5km/h 66% 0.00in /  0mm
04:10 4.5 °F /  -15.3 °C -4.4 °F /  -20.2 °C 29.77in /  1008hPa NW 1.0mph /  1.6km/h 6.0mph /  9.7km/h 66% 0.00in /  0mm
04:15 4.6 °F /  -15.2 °C -4.3 °F /  -20.2 °C 29.77in /  1008hPa Calm   4.0mph /  6.4km/h 66% 0.00in /  0mm
04:20 4.6 °F /  -15.2 °C -4.3 °F /  -20.2 °C 29.77in /  1008hPa NNW 2.0mph /  3.2km/h 6.0mph /  9.7km/h 66% 0.00in /  0mm
04:25 4.6 °F /  -15.2 °C -4.3 °F /  -20.2 °C 29.77in /  1008hPa NNW 3.0mph /  4.8km/h 7.0mph /  11.3km/h 66% 0.00in /  0mm
04:35 4.6 °F /  -15.2 °C -4.6 °F /  -20.3 °C 29.77in /  1008hPa NW 5.0mph /  8km/h 12.0mph /  19.3km/h 65% 0.00in /  0mm
04:40 4.5 °F /  -15.3 °C -4.7 °F /  -20.4 °C 29.77in /  1008hPa NNW 4.0mph /  6.4km/h 12.0mph /  19.3km/h 65% 0.00in /  0mm
04:45 4.5 °F /  -15.3 °C -4.7 °F /  -20.4 °C 29.78in /  1008.4hPa NW 3.0mph /  4.8km/h 10.0mph /  16.1km/h 65% 0.00in /  0mm
04:50 4.2 °F /  -15.4 °C -5.3 °F /  -20.7 °C 29.78in /  1008.4hPa NW 6.0mph /  9.7km/h 12.0mph /  19.3km/h 64% 0.00in /  0mm
04:54 4.1 °F /  -15.5 °C -5.1 °F /  -20.6 °C 29.77in /  1008hPa NNW 2.0mph /  3.2km/h 12.0mph /  19.3km/h 65% 0.00in /  0mm
05:00 4.0 °F /  -15.6 °C -5.2 °F /  -20.7 °C 29.78in /  1008.4hPa NNW 3.0mph /  4.8km/h 10.0mph /  16.1km/h 65% 0.00in /  0mm
05:05 3.8 °F /  -15.7 °C -5.3 °F /  -20.7 °C 29.78in /  1008.4hPa NW 4.0mph /  6.4km/h 11.0mph /  17.7km/h 65% 0.00in /  0mm
05:10 3.7 °F /  -15.7 °C -5.4 °F /  -20.8 °C 29.78in /  1008.4hPa Calm   11.0mph /  17.7km/h 65% 0.00in /  0mm
05:15 3.6 °F /  -15.8 °C -5.5 °F /  -20.8 °C 29.78in /  1008.4hPa NW 3.0mph /  4.8km/h 9.0mph /  14.5km/h 65% 0.00in /  0mm
05:20 3.5 °F /  -15.8 °C -5.6 °F /  -20.9 °C 29.78in /  1008.4hPa NNW 1.0mph /  1.6km/h 9.0mph /  14.5km/h 65% 0.00in /  0mm
05:25 3.4 °F /  -15.9 °C -5.7 °F /  -20.9 °C 29.77in /  1008hPa WNW 3.0mph /  4.8km/h 8.0mph /  12.9km/h 65% 0.00in /  0mm
05:35 3.1 °F /  -16.1 °C -6.0 °F /  -21.1 °C 29.78in /  1008.4hPa West 1.0mph /  1.6km/h 11.0mph /  17.7km/h 65% 0.00in /  0mm
05:40 2.9 °F /  -16.2 °C -6.2 °F /  -21.2 °C 29.78in /  1008.4hPa WNW 3.0mph /  4.8km/h 10.0mph /  16.1km/h 65% 0.00in /  0mm
05:45 2.8 °F /  -16.2 °C -6.0 °F /  -21.1 °C 29.77in /  1008hPa NW 3.0mph /  4.8km/h 14.0mph /  22.5km/h 66% 0.00in /  0mm
05:50 2.6 °F /  -16.3 °C -6.2 °F /  -21.2 °C 29.77in /  1008hPa NW 2.0mph /  3.2km/h 14.0mph /  22.5km/h 66% 0.00in /  0mm
05:55 2.4 °F /  -16.4 °C -6.4 °F /  -21.3 °C 29.78in /  1008.4hPa NW 5.0mph /  8km/h 8.0mph /  12.9km/h 66% 0.00in /  0mm
06:00 2.2 °F /  -16.6 °C -6.6 °F /  -21.4 °C 29.78in /  1008.4hPa NW 4.0mph /  6.4km/h 9.0mph /  14.5km/h 66% 0.00in /  0mm
06:05 2.0 °F /  -16.7 °C -6.4 °F /  -21.3 °C 29.78in /  1008.4hPa NW 6.0mph /  9.7km/h 13.0mph /  20.9km/h 67% 0.00in /  0mm
06:10 1.9 °F /  -16.7 °C -6.5 °F /  -21.4 °C 29.78in /  1008.4hPa NW 3.0mph /  4.8km/h 13.0mph /  20.9km/h 67% 0.00in /  0mm
06:15 1.7 °F /  -16.8 °C -6.7 °F /  -21.5 °C 29.78in /  1008.4hPa WNW 1.0mph /  1.6km/h 10.0mph /  16.1km/h 67% 0.00in /  0mm
06:20 1.6 °F /  -16.9 °C -6.5 °F /  -21.4 °C 29.78in /  1008.4hPa NW 2.0mph /  3.2km/h 6.0mph /  9.7km/h 68% 0.00in /  0mm
06:25 1.6 °F /  -16.9 °C -6.2 °F /  -21.2 °C 29.78in /  1008.4hPa NNW 1.0mph /  1.6km/h 12.0mph /  19.3km/h 69% 0.00in /  0mm
06:30 1.5 °F /  -16.9 °C -6.3 °F /  -21.3 °C 29.78in /  1008.4hPa NW 2.0mph /  3.2km/h 12.0mph /  19.3km/h 69% 0.00in /  0mm
06:35 1.6 °F /  -16.9 °C -6.2 °F /  -21.2 °C 29.78in /  1008.4hPa North 1.0mph /  1.6km/h 6.0mph /  9.7km/h 69% 0.00in /  0mm
06:45 1.4 °F /  -17 °C -6.1 °F /  -21.2 °C 29.78in /  1008.4hPa NNW 2.0mph /  3.2km/h 5.0mph /  8km/h 70% 0.00in /  0mm
06:55 1.5 °F /  -16.9 °C -5.7 °F /  -20.9 °C 29.78in /  1008.4hPa NW 1.0mph /  1.6km/h 7.0mph /  11.3km/h 71% 0.00in /  0mm
07:00 1.5 °F /  -16.9 °C -5.7 °F /  -20.9 °C 29.78in /  1008.4hPa NNW 3.0mph /  4.8km/h 11.0mph /  17.7km/h 71% 0.00in /  0mm
07:05 1.7 °F /  -16.8 °C -5.5 °F /  -20.8 °C 29.78in /  1008.4hPa NNW 3.0mph /  4.8km/h 11.0mph /  17.7km/h 71% 0.00in /  0mm
07:10 1.7 °F /  -16.8 °C -5.2 °F /  -20.7 °C 29.78in /  1008.4hPa NW 3.0mph /  4.8km/h 8.0mph /  12.9km/h 72% 0.00in /  0mm
07:15 1.7 °F /  -16.8 °C -5.2 °F /  -20.7 °C 29.78in /  1008.4hPa NNW 2.0mph /  3.2km/h 7.0mph /  11.3km/h 72% 0.00in /  0mm
07:19 1.8 °F /  -16.8 °C -5.1 °F /  -20.6 °C 29.79in /  1008.7hPa Calm   7.0mph /  11.3km/h 72% 0.00in /  0mm
07:25 1.8 °F /  -16.8 °C -5.1 °F /  -20.6 °C 29.79in /  1008.7hPa NNW 2.0mph /  3.2km/h 7.0mph /  11.3km/h 72% 0.00in /  0mm
07:29 1.9 °F /  -16.7 °C -4.8 °F /  -20.4 °C 29.79in /  1008.7hPa NNW 1.0mph /  1.6km/h 7.0mph /  11.3km/h 73% 0.00in /  0mm
07:34 2.0 °F /  -16.7 °C -4.7 °F /  -20.4 °C 29.79in /  1008.7hPa NW 2.0mph /  3.2km/h 6.0mph /  9.7km/h 73% 0.00in /  0mm
07:40 2.0 °F /  -16.7 °C -4.7 °F /  -20.4 °C 29.79in /  1008.7hPa NW 1.0mph /  1.6km/h 6.0mph /  9.7km/h 73% 0.00in /  0mm
07:45 2.1 °F /  -16.6 °C -4.6 °F /  -20.3 °C 29.79in /  1008.7hPa NNW 1.0mph /  1.6km/h 7.0mph /  11.3km/h 73% 0.00in /  0mm
07:50 2.2 °F /  -16.6 °C -4.5 °F /  -20.3 °C 29.79in /  1008.7hPa NNW 4.0mph /  6.4km/h 10.0mph /  16.1km/h 73% 0.00in /  0mm
07:54 2.2 °F /  -16.6 °C -4.5 °F /  -20.3 °C 29.79in /  1008.7hPa NW 3.0mph /  4.8km/h 10.0mph /  16.1km/h 73% 0.00in /  0mm
08:00 2.3 °F /  -16.5 °C -4.4 °F /  -20.2 °C 29.80in /  1009hPa NNW 2.0mph /  3.2km/h 10.0mph /  16.1km/h 73% 0.00in /  0mm
08:05 2.3 °F /  -16.5 °C -4.4 °F /  -20.2 °C 29.80in /  1009hPa NW 2.0mph /  3.2km/h 6.0mph /  9.7km/h 73% 0.00in /  0mm
08:09 2.4 °F /  -16.4 °C -4.0 °F /  -20 °C 29.80in /  1009hPa Calm   6.0mph /  9.7km/h 74% 0.00in /  0mm
08:15 2.5 °F /  -16.4 °C -4.2 °F /  -20.1 °C 29.80in /  1009hPa WNW 3.0mph /  4.8km/h 7.0mph /  11.3km/h 73% 0.00in /  0mm
08:19 2.5 °F /  -16.4 °C -4.2 °F /  -20.1 °C 29.80in /  1009hPa NNW 3.0mph /  4.8km/h 8.0mph /  12.9km/h 73% 0.00in /  0mm
08:25 2.5 °F /  -16.4 °C -4.2 °F /  -20.1 °C 29.80in /  1009hPa NNW 3.0mph /  4.8km/h 8.0mph /  12.9km/h 73% 0.00in /  0mm
08:30 2.7 °F /  -16.3 °C -4.0 °F /  -20 °C 29.80in /  1009hPa North 1.0mph /  1.6km/h 8.0mph /  12.9km/h 73% 0.00in /  0mm
08:40 2.6 °F /  -16.3 °C -4.4 °F /  -20.2 °C 29.81in /  1009.4hPa NW 6.0mph /  9.7km/h 14.0mph /  22.5km/h 72% 0.00in /  0mm
08:45 2.2 °F /  -16.6 °C -4.8 °F /  -20.4 °C 29.81in /  1009.4hPa NNW 6.0mph /  9.7km/h 14.0mph /  22.5km/h 72% 0.00in /  0mm
08:50 2.0 °F /  -16.7 °C -5.0 °F /  -20.6 °C 29.81in /  1009.4hPa NNW 6.0mph /  9.7km/h 12.0mph /  19.3km/h 72% 0.00in /  0mm
08:55 2.0 °F /  -16.7 °C -4.7 °F /  -20.4 °C 29.80in /  1009hPa NNW 4.0mph /  6.4km/h 12.0mph /  19.3km/h 73% 0.00in /  0mm
09:00 2.0 °F /  -16.7 °C -4.7 °F /  -20.4 °C 29.81in /  1009.4hPa NNW 5.0mph /  8km/h 13.0mph /  20.9km/h 73% 0.00in /  0mm
09:05 2.1 °F /  -16.6 °C -4.6 °F /  -20.3 °C 29.81in /  1009.4hPa NNW 7.0mph /  11.3km/h 13.0mph /  20.9km/h 73% 0.00in /  0mm
09:10 1.9 °F /  -16.7 °C -4.8 °F /  -20.4 °C 29.81in /  1009.4hPa NNW 5.0mph /  8km/h 15.0mph /  24.1km/h 73% 0.00in /  0mm
09:14 2.1 °F /  -16.6 °C -1.9 °F /  -18.8 °C 29.81in /  1009.4hPa NNW 4.0mph /  6.4km/h 15.0mph /  24.1km/h 83% 0.00in /  0mm
09:20 2.2 °F /  -16.6 °C -4.2 °F /  -20.1 °C 29.81in /  1009.4hPa NNW 2.0mph /  3.2km/h 11.0mph /  17.7km/h 74% 0.00in /  0mm
09:25 2.4 °F /  -16.4 °C -4.3 °F /  -20.2 °C 29.82in /  1009.7hPa NNW 3.0mph /  4.8km/h 10.0mph /  16.1km/h 73% 0.00in /  0mm
09:29 2.4 °F /  -16.4 °C -4.0 °F /  -20 °C 29.81in /  1009.4hPa NW 1.0mph /  1.6km/h 14.0mph /  22.5km/h 74% 0.00in /  0mm
09:35 2.6 °F /  -16.3 °C -3.8 °F /  -19.9 °C 29.81in /  1009.4hPa NNW 3.0mph /  4.8km/h 14.0mph /  22.5km/h 74% 0.00in /  0mm
09:40 2.7 °F /  -16.3 °C -3.7 °F /  -19.8 °C 29.81in /  1009.4hPa North 3.0mph /  4.8km/h 10.0mph /  16.1km/h 74% 0.00in /  0mm
09:45 2.8 °F /  -16.2 °C -3.6 °F /  -19.8 °C 29.81in /  1009.4hPa NNW 4.0mph /  6.4km/h 10.0mph /  16.1km/h 74% 0.00in /  0mm
09:50 2.8 °F /  -16.2 °C -3.9 °F /  -19.9 °C 29.81in /  1009.4hPa NNW 2.0mph /  3.2km/h 10.0mph /  16.1km/h 73% 0.00in /  0mm
09:54 3.0 °F /  -16.1 °C -3.4 °F /  -19.7 °C 29.81in /  1009.4hPa NNW 5.0mph /  8km/h 14.0mph /  22.5km/h 74% 0.00in /  0mm
10:00 2.8 °F /  -16.2 °C -3.9 °F /  -19.9 °C 29.81in /  1009.4hPa NNW 3.0mph /  4.8km/h 14.0mph /  22.5km/h 73% 0.00in /  0mm
10:05 3.0 °F /  -16.1 °C -3.7 °F /  -19.8 °C 29.81in /  1009.4hPa NNW 2.0mph /  3.2km/h 14.0mph /  22.5km/h 73% 0.00in /  0mm
10:09 3.1 °F /  -16.1 °C -3.9 °F /  -19.9 °C 29.81in /  1009.4hPa NNW 5.0mph /  8km/h 11.0mph /  17.7km/h 72% 0.00in /  0mm
10:15 2.8 °F /  -16.2 °C -4.2 °F /  -20.1 °C 29.81in /  1009.4hPa NNW 2.0mph /  3.2km/h 14.0mph /  22.5km/h 72% 0.00in /  0mm
10:20 2.5 °F /  -16.4 °C -4.8 °F /  -20.4 °C 29.81in /  1009.4hPa NNW 5.0mph /  8km/h 14.0mph /  22.5km/h 71% 0.00in /  0mm
10:25 2.6 °F /  -16.3 °C -4.1 °F /  -20.1 °C 29.82in /  1009.7hPa NNW 3.0mph /  4.8km/h 12.0mph /  19.3km/h 73% 0.00in /  0mm
10:35 2.7 °F /  -16.3 °C -4.0 °F /  -20 °C 29.82in /  1009.7hPa NNW 2.0mph /  3.2km/h 11.0mph /  17.7km/h 73% 0.00in /  0mm
10:45 2.8 °F /  -16.2 °C -3.9 °F /  -19.9 °C 29.82in /  1009.7hPa NNW 1.0mph /  1.6km/h 10.0mph /  16.1km/h 73% 0.00in /  0mm
10:50 2.8 °F /  -16.2 °C -3.9 °F /  -19.9 °C 29.81in /  1009.4hPa NNW 3.0mph /  4.8km/h 14.0mph /  22.5km/h 73% 0.00in /  0mm
10:55 3.1 °F /  -16.1 °C -3.6 °F /  -19.8 °C 29.81in /  1009.4hPa NNW 2.0mph /  3.2km/h 14.0mph /  22.5km/h 73% 0.00in /  0mm
11:00 3.4 °F /  -15.9 °C -3.3 °F /  -19.6 °C 29.81in /  1009.4hPa NNW 2.0mph /  3.2km/h 14.0mph /  22.5km/h 73% 0.00in /  0mm
11:10 4.0 °F /  -15.6 °C -3.0 °F /  -19.4 °C 29.81in /  1009.4hPa North 3.0mph /  4.8km/h 11.0mph /  17.7km/h 72% 0.00in /  0mm
11:15 4.2 °F /  -15.4 °C -3.1 °F /  -19.5 °C 29.81in /  1009.4hPa NNW 3.0mph /  4.8km/h 11.0mph /  17.7km/h 71% 0.00in /  0mm
11:20 3.8 °F /  -15.7 °C -3.5 °F /  -19.7 °C 29.81in /  1009.4hPa NNW 5.0mph /  8km/h 13.0mph /  20.9km/h 71% 0.00in /  0mm
11:25 3.9 °F /  -15.6 °C -3.4 °F /  -19.7 °C 29.80in /  1009hPa NNW 2.0mph /  3.2km/h 13.0mph /  20.9km/h 71% 0.00in /  0mm
11:30 3.7 °F /  -15.7 °C -3.9 °F /  -19.9 °C 29.80in /  1009hPa NNW 5.0mph /  8km/h 11.0mph /  17.7km/h 70% 0.00in /  0mm
11:40 4.0 °F /  -15.6 °C -3.9 °F /  -19.9 °C 29.80in /  1009hPa NNW 3.0mph /  4.8km/h 10.0mph /  16.1km/h 69% 0.00in /  0mm
11:45 4.1 °F /  -15.5 °C -4.1 °F /  -20.1 °C 29.80in /  1009hPa NNW 3.0mph /  4.8km/h 12.0mph /  19.3km/h 68% 0.00in /  0mm
11:50 4.5 °F /  -15.3 °C -4.0 °F /  -20 °C 29.80in /  1009hPa NNW 5.0mph /  8km/h 12.0mph /  19.3km/h 67% 0.00in /  0mm
12:00 5.0 °F /  -15 °C -4.5 °F /  -20.3 °C 29.80in /  1009hPa NNW 2.0mph /  3.2km/h 13.0mph /  20.9km/h 64% 0.00in /  0mm
12:05 5.4 °F /  -14.8 °C -3.8 °F /  -19.9 °C 29.80in /  1009hPa NNW 3.0mph /  4.8km/h 11.0mph /  17.7km/h 65% 0.00in /  0mm
12:10 5.1 °F /  -14.9 °C -5.4 °F /  -20.8 °C 29.79in /  1008.7hPa NW 8.0mph /  12.9km/h 14.0mph /  22.5km/h 61% 0.00in /  0mm
12:15 5.1 °F /  -14.9 °C -4.8 °F /  -20.4 °C 29.79in /  1008.7hPa NNW 3.0mph /  4.8km/h 16.0mph /  25.7km/h 63% 0.00in /  0mm
12:19 5.5 °F /  -14.7 °C -4.4 °F /  -20.2 °C 29.79in /  1008.7hPa NNW 4.0mph /  6.4km/h 16.0mph /  25.7km/h 63% 0.00in /  0mm
12:24 5.6 °F /  -14.7 °C -4.6 °F /  -20.3 °C 29.78in /  1008.4hPa NNW 3.0mph /  4.8km/h 12.0mph /  19.3km/h 62% 0.00in /  0mm
12:30 5.9 °F /  -14.5 °C -4.7 °F /  -20.4 °C 29.78in /  1008.4hPa North 3.0mph /  4.8km/h 12.0mph /  19.3km/h 61% 0.00in /  0mm
12:35 6.2 °F /  -14.3 °C -4.4 °F /  -20.2 °C 29.78in /  1008.4hPa NW 4.0mph /  6.4km/h 9.0mph /  14.5km/h 61% 0.00in /  0mm
12:39 6.0 °F /  -14.4 °C -4.9 °F /  -20.5 °C 29.78in /  1008.4hPa NNW 4.0mph /  6.4km/h 10.0mph /  16.1km/h 60% 0.00in /  0mm
12:45 6.1 °F /  -14.4 °C -4.8 °F /  -20.4 °C 29.78in /  1008.4hPa NW 4.0mph /  6.4km/h 11.0mph /  17.7km/h 60% 0.00in /  0mm
12:50 6.8 °F /  -14 °C -4.5 °F /  -20.3 °C 29.78in /  1008.4hPa NNW 4.0mph /  6.4km/h 11.0mph /  17.7km/h 59% 0.00in /  0mm
12:55 6.4 °F /  -14.2 °C -5.2 °F /  -20.7 °C 29.78in /  1008.4hPa NW 7.0mph /  11.3km/h 11.0mph /  17.7km/h 58% 0.00in /  0mm
13:00 6.6 °F /  -14.1 °C -4.0 °F /  -20 °C 29.78in /  1008.4hPa NNW 5.0mph /  8km/h 12.0mph /  19.3km/h 61% 0.00in /  0mm
13:05 6.7 °F /  -14.1 °C -4.6 °F /  -20.3 °C 29.78in /  1008.4hPa NNW 4.0mph /  6.4km/h 12.0mph /  19.3km/h 59% 0.00in /  0mm
13:10 6.6 °F /  -14.1 °C -4.3 °F /  -20.2 °C 29.78in /  1008.4hPa NW 7.0mph /  11.3km/h 13.0mph /  20.9km/h 60% 0.00in /  0mm
13:15 6.1 °F /  -14.4 °C -5.2 °F /  -20.7 °C 29.77in /  1008hPa NW 4.0mph /  6.4km/h 14.0mph /  22.5km/h 59% 0.00in /  0mm
13:20 6.3 °F /  -14.3 °C -4.6 °F /  -20.3 °C 29.77in /  1008hPa NNW 5.0mph /  8km/h 14.0mph /  22.5km/h 60% 0.00in /  0mm
13:25 6.8 °F /  -14 °C -4.2 °F /  -20.1 °C 29.77in /  1008hPa North 2.0mph /  3.2km/h 13.0mph /  20.9km/h 60% 0.00in /  0mm
13:35 7.0 °F /  -13.9 °C -4.0 °F /  -20 °C 29.77in /  1008hPa NNW 2.0mph /  3.2km/h 12.0mph /  19.3km/h 60% 0.00in /  0mm
13:45 7.3 °F /  -13.7 °C -3.7 °F /  -19.8 °C 29.77in /  1008hPa NNW 2.0mph /  3.2km/h 12.0mph /  19.3km/h 60% 0.00in /  0mm
13:50 7.1 °F /  -13.8 °C -4.2 °F /  -20.1 °C 29.78in /  1008.4hPa North 2.0mph /  3.2km/h 12.0mph /  19.3km/h 59% 0.00in /  0mm
13:55 7.1 °F /  -13.8 °C -4.2 °F /  -20.1 °C 29.78in /  1008.4hPa NW 2.0mph /  3.2km/h 9.0mph /  14.5km/h 59% 0.00in /  0mm
14:00 6.9 °F /  -13.9 °C -4.4 °F /  -20.2 °C 29.78in /  1008.4hPa NW 4.0mph /  6.4km/h 9.0mph /  14.5km/h 59% 0.00in /  0mm
14:05 7.0 °F /  -13.9 °C -4.3 °F /  -20.2 °C 29.78in /  1008.4hPa NW 4.0mph /  6.4km/h 9.0mph /  14.5km/h 59% 0.00in /  0mm
14:10 7.3 °F /  -13.7 °C -4.4 °F /  -20.2 °C 29.78in /  1008.4hPa NNW 2.0mph /  3.2km/h 9.0mph /  14.5km/h 58% 0.00in /  0mm
14:14 7.5 °F /  -13.6 °C -4.6 °F /  -20.3 °C 29.78in /  1008.4hPa NW 4.0mph /  6.4km/h 11.0mph /  17.7km/h 57% 0.00in /  0mm
14:19 7.1 °F /  -13.8 °C -5.3 °F /  -20.7 °C 29.78in /  1008.4hPa NW 6.0mph /  9.7km/h 17.0mph /  27.4km/h 56% 0.00in /  0mm
14:25 7.4 °F /  -13.7 °C -4.7 °F /  -20.4 °C 29.78in /  1008.4hPa NW 5.0mph /  8km/h 17.0mph /  27.4km/h 57% 0.00in /  0mm
14:29 7.4 °F /  -13.7 °C -5.0 °F /  -20.6 °C 29.78in /  1008.4hPa NNW 3.0mph /  4.8km/h 14.0mph /  22.5km/h 56% 0.00in /  0mm
14:35 7.8 °F /  -13.4 °C -4.7 °F /  -20.4 °C 29.78in /  1008.4hPa NNW 4.0mph /  6.4km/h 14.0mph /  22.5km/h 56% 0.00in /  0mm
14:40 7.8 °F /  -13.4 °C -5.0 °F /  -20.6 °C 29.79in /  1008.7hPa NW 7.0mph /  11.3km/h 13.0mph /  20.9km/h 55% 0.00in /  0mm
14:45 7.7 °F /  -13.5 °C -5.1 °F /  -20.6 °C 29.79in /  1008.7hPa North 3.0mph /  4.8km/h 13.0mph /  20.9km/h 55% 0.00in /  0mm
14:55 7.3 °F /  -13.7 °C -5.5 °F /  -20.8 °C 29.79in /  1008.7hPa NW 4.0mph /  6.4km/h 15.0mph /  24.1km/h 55% 0.00in /  0mm
15:00 7.4 °F /  -13.7 °C -5.8 °F /  -21 °C 29.78in /  1008.4hPa NNW 5.0mph /  8km/h 16.0mph /  25.7km/h 54% 0.00in /  0mm
15:05 7.6 °F /  -13.6 °C -5.2 °F /  -20.7 °C 29.78in /  1008.4hPa NNW 7.0mph /  11.3km/h 16.0mph /  25.7km/h 55% 0.00in /  0mm
15:10 7.9 °F /  -13.4 °C -5.3 °F /  -20.7 °C 29.79in /  1008.7hPa NNW 5.0mph /  8km/h 14.0mph /  22.5km/h 54% 0.00in /  0mm
15:15 7.7 °F /  -13.5 °C -5.5 °F /  -20.8 °C 29.79in /  1008.7hPa NNW 4.0mph /  6.4km/h 14.0mph /  22.5km/h 54% 0.00in /  0mm
15:19 7.3 °F /  -13.7 °C -5.5 °F /  -20.8 °C 29.79in /  1008.7hPa NNW 4.0mph /  6.4km/h 14.0mph /  22.5km/h 55% 0.00in /  0mm
15:25 7.6 °F /  -13.6 °C -5.2 °F /  -20.7 °C 29.79in /  1008.7hPa NNW 4.0mph /  6.4km/h 12.0mph /  19.3km/h 55% 0.00in /  0mm
15:30 7.8 °F /  -13.4 °C -5.0 °F /  -20.6 °C 29.79in /  1008.7hPa NNW 5.0mph /  8km/h 14.0mph /  22.5km/h 55% 0.00in /  0mm
15:34 8.0 °F /  -13.3 °C -5.2 °F /  -20.7 °C 29.79in /  1008.7hPa NNW 5.0mph /  8km/h 14.0mph /  22.5km/h 54% 0.00in /  0mm
15:39 7.8 °F /  -13.4 °C -5.4 °F /  -20.8 °C 29.79in /  1008.7hPa NNW 4.0mph /  6.4km/h 12.0mph /  19.3km/h 54% 0.00in /  0mm
15:45 8.0 °F /  -13.3 °C -5.2 °F /  -20.7 °C 29.79in /  1008.7hPa NNW 5.0mph /  8km/h 13.0mph /  20.9km/h 54% 0.00in /  0mm
15:50 8.0 °F /  -13.3 °C -5.2 °F /  -20.7 °C 29.79in /  1008.7hPa NW 7.0mph /  11.3km/h 16.0mph /  25.7km/h 54% 0.00in /  0mm
15:59 7.7 °F /  -13.5 °C -5.9 °F /  -21.1 °C 29.80in /  1009hPa NW 5.0mph /  8km/h 19.0mph /  30.6km/h 53% 0.00in /  0mm
16:04 7.8 °F /  -13.4 °C -5.8 °F /  -21 °C 29.80in /  1009hPa NNW 5.0mph /  8km/h 19.0mph /  30.6km/h 53% 0.00in /  0mm
16:10 7.7 °F /  -13.5 °C -6.3 °F /  -21.3 °C 29.80in /  1009hPa NW 4.0mph /  6.4km/h 11.0mph /  17.7km/h 52% 0.00in /  0mm
16:14 7.8 °F /  -13.4 °C -5.8 °F /  -21 °C 29.80in /  1009hPa NNW 4.0mph /  6.4km/h 11.0mph /  17.7km/h 53% 0.00in /  0mm
16:19 7.5 °F /  -13.6 °C -6.1 °F /  -21.2 °C 29.80in /  1009hPa WNW 4.0mph /  6.4km/h 9.0mph /  14.5km/h 53% 0.00in /  0mm
16:25 6.8 °F /  -14 °C -6.7 °F /  -21.5 °C 29.80in /  1009hPa NW 3.0mph /  4.8km/h 9.0mph /  14.5km/h 53% 0.00in /  0mm
16:35 6.5 °F /  -14.2 °C -6.2 °F /  -21.2 °C 29.81in /  1009.4hPa North 1.0mph /  1.6km/h 9.0mph /  14.5km/h 55% 0.00in /  0mm
16:40 6.4 °F /  -14.2 °C -6.3 °F /  -21.3 °C 29.81in /  1009.4hPa NW 2.0mph /  3.2km/h 6.0mph /  9.7km/h 55% 0.00in /  0mm
16:45 6.4 °F /  -14.2 °C -6.3 °F /  -21.3 °C 29.81in /  1009.4hPa NW 3.0mph /  4.8km/h 7.0mph /  11.3km/h 55% 0.00in /  0mm
16:55 6.3 °F /  -14.3 °C -6.1 °F /  -21.2 °C 29.81in /  1009.4hPa NNW 4.0mph /  6.4km/h 10.0mph /  16.1km/h 56% 0.00in /  0mm
17:05 6.0 °F /  -14.4 °C -6.3 °F /  -21.3 °C 29.81in /  1009.4hPa NNW 3.0mph /  4.8km/h 10.0mph /  16.1km/h 56% 0.00in /  0mm
17:09 5.9 °F /  -14.5 °C -6.4 °F /  -21.3 °C 29.82in /  1009.7hPa NW 4.0mph /  6.4km/h 10.0mph /  16.1km/h 56% 0.00in /  0mm
17:14 6.0 °F /  -14.4 °C -6.3 °F /  -21.3 °C 29.81in /  1009.4hPa NW 2.0mph /  3.2km/h 11.0mph /  17.7km/h 56% 0.00in /  0mm
17:20 5.9 °F /  -14.5 °C -6.4 °F /  -21.3 °C 29.82in /  1009.7hPa NW 4.0mph /  6.4km/h 11.0mph /  17.7km/h 56% 0.00in /  0mm
17:25 5.9 °F /  -14.5 °C -6.4 °F /  -21.3 °C 29.82in /  1009.7hPa NW 2.0mph /  3.2km/h 9.0mph /  14.5km/h 56% 0.00in /  0mm
17:34 5.7 °F /  -14.6 °C -6.3 °F /  -21.3 °C 29.82in /  1009.7hPa NW 2.0mph /  3.2km/h 9.0mph /  14.5km/h 57% 0.00in /  0mm
17:40 5.6 °F /  -14.7 °C -6.4 °F /  -21.3 °C 29.83in /  1010hPa NW 1.0mph /  1.6km/h 7.0mph /  11.3km/h 57% 0.00in /  0mm
17:50 5.4 °F /  -14.8 °C -6.5 °F /  -21.4 °C 29.83in /  1010hPa Calm   5.0mph /  8km/h 57% 0.00in /  0mm
17:54 5.5 °F /  -14.7 °C -6.1 °F /  -21.2 °C 29.83in /  1010hPa NW 1.0mph /  1.6km/h 8.0mph /  12.9km/h 58% 0.00in /  0mm
18:00 5.6 °F /  -14.7 °C -6.0 °F /  -21.1 °C 29.83in /  1010hPa NW 1.0mph /  1.6km/h 8.0mph /  12.9km/h 58% 0.00in /  0mm
18:05 5.6 °F /  -14.7 °C -6.0 °F /  -21.1 °C 29.83in /  1010hPa NNW 1.0mph /  1.6km/h 7.0mph /  11.3km/h 58% 0.00in /  0mm
18:09 5.6 °F /  -14.7 °C -6.0 °F /  -21.1 °C 29.83in /  1010hPa Calm   7.0mph /  11.3km/h 58% 0.00in /  0mm
18:14 5.8 °F /  -14.6 °C -5.8 °F /  -21 °C 29.83in /  1010hPa NW 1.0mph /  1.6km/h 7.0mph /  11.3km/h 58% 0.00in /  0mm
18:20 5.9 °F /  -14.5 °C -5.4 °F /  -20.8 °C 29.83in /  1010hPa WNW 1.0mph /  1.6km/h 7.0mph /  11.3km/h 59% 0.00in /  0mm
18:25 5.9 °F /  -14.5 °C -5.4 °F /  -20.8 °C 29.83in /  1010hPa WNW 1.0mph /  1.6km/h 4.0mph /  6.4km/h 59% 0.00in /  0mm
18:30 6.0 °F /  -14.4 °C -5.3 °F /  -20.7 °C 29.83in /  1010hPa WNW 1.0mph /  1.6km/h 5.0mph /  8km/h 59% 0.00in /  0mm
18:39 6.4 °F /  -14.2 °C -4.9 °F /  -20.5 °C 29.83in /  1010hPa NW 1.0mph /  1.6km/h 5.0mph /  8km/h 59% 0.00in /  0mm
18:44 6.5 °F /  -14.2 °C -4.8 °F /  -20.4 °C 29.83in /  1010hPa WNW 1.0mph /  1.6km/h 7.0mph /  11.3km/h 59% 0.00in /  0mm
18:50 6.7 °F /  -14.1 °C -4.3 °F /  -20.2 °C 29.83in /  1010hPa WNW 2.0mph /  3.2km/h 7.0mph /  11.3km/h 60% 0.00in /  0mm
18:54 6.8 °F /  -14 °C -4.2 °F /  -20.1 °C 29.83in /  1010hPa WNW 3.0mph /  4.8km/h 6.0mph /  9.7km/h 60% 0.00in /  0mm
18:59 7.0 °F /  -13.9 °C -4.0 °F /  -20 °C 29.83in /  1010hPa WNW 2.0mph /  3.2km/h 9.0mph /  14.5km/h 60% 0.00in /  0mm
19:05 7.2 °F /  -13.8 °C -3.8 °F /  -19.9 °C 29.84in /  1010.4hPa WNW 4.0mph /  6.4km/h 10.0mph /  16.1km/h 60% 0.00in /  0mm
19:09 7.4 °F /  -13.7 °C -3.6 °F /  -19.8 °C 29.84in /  1010.4hPa WNW 5.0mph /  8km/h 10.0mph /  16.1km/h 60% 0.00in /  0mm
19:15 7.6 °F /  -13.6 °C -3.4 °F /  -19.7 °C 29.83in /  1010hPa WNW 3.0mph /  4.8km/h 8.0mph /  12.9km/h 60% 0.00in /  0mm
19:20 7.8 °F /  -13.4 °C -3.2 °F /  -19.6 °C 29.84in /  1010.4hPa WNW 3.0mph /  4.8km/h 8.0mph /  12.9km/h 60% 0.00in /  0mm
19:25 7.8 °F /  -13.4 °C -3.2 °F /  -19.6 °C 29.84in /  1010.4hPa NW 2.0mph /  3.2km/h 8.0mph /  12.9km/h 60% 0.00in /  0mm
19:30 7.9 °F /  -13.4 °C -2.8 °F /  -19.3 °C 29.84in /  1010.4hPa WNW 2.0mph /  3.2km/h 8.0mph /  12.9km/h 61% 0.00in /  0mm
19:35 8.1 °F /  -13.3 °C -2.6 °F /  -19.2 °C 29.84in /  1010.4hPa WNW 6.0mph /  9.7km/h 11.0mph /  17.7km/h 61% 0.00in /  0mm
19:40 8.2 °F /  -13.2 °C -2.5 °F /  -19.2 °C 29.84in /  1010.4hPa WNW 5.0mph /  8km/h 11.0mph /  17.7km/h 61% 0.00in /  0mm
19:45 8.3 °F /  -13.2 °C -2.4 °F /  -19.1 °C 29.84in /  1010.4hPa WNW 5.0mph /  8km/h 15.0mph /  24.1km/h 61% 0.00in /  0mm
19:50 8.3 °F /  -13.2 °C -2.0 °F /  -18.9 °C 29.84in /  1010.4hPa West 1.0mph /  1.6km/h 15.0mph /  24.1km/h 62% 0.00in /  0mm
19:55 8.4 °F /  -13.1 °C -2.0 °F /  -18.9 °C 29.84in /  1010.4hPa WNW 4.0mph /  6.4km/h 7.0mph /  11.3km/h 62% 0.00in /  0mm
20:00 8.5 °F /  -13.1 °C -1.9 °F /  -18.8 °C 29.84in /  1010.4hPa WNW 4.0mph /  6.4km/h 10.0mph /  16.1km/h 62% 0.00in /  0mm
20:05 8.6 °F /  -13 °C -1.8 °F /  -18.8 °C 29.84in /  1010.4hPa WNW 3.0mph /  4.8km/h 10.0mph /  16.1km/h 62% 0.00in /  0mm
20:10 8.6 °F /  -13 °C -1.4 °F /  -18.6 °C 29.84in /  1010.4hPa West 2.0mph /  3.2km/h 10.0mph /  16.1km/h 63% 0.00in /  0mm
20:15 8.6 °F /  -13 °C -1.4 °F /  -18.6 °C 29.84in /  1010.4hPa WNW 4.0mph /  6.4km/h 10.0mph /  16.1km/h 63% 0.00in /  0mm
20:20 8.8 °F /  -12.9 °C -1.2 °F /  -18.4 °C 29.84in /  1010.4hPa West 5.0mph /  8km/h 8.0mph /  12.9km/h 63% 0.00in /  0mm
20:25 8.8 °F /  -12.9 °C -1.2 °F /  -18.4 °C 29.84in /  1010.4hPa West 2.0mph /  3.2km/h 8.0mph /  12.9km/h 63% 0.00in /  0mm
20:30 8.9 °F /  -12.8 °C -0.8 °F /  -18.2 °C 29.84in /  1010.4hPa West 3.0mph /  4.8km/h 7.0mph /  11.3km/h 64% 0.00in /  0mm
20:40 9.0 °F /  -12.8 °C -0.7 °F /  -18.2 °C 29.84in /  1010.4hPa West 3.0mph /  4.8km/h 8.0mph /  12.9km/h 64% 0.00in /  0mm
20:45 9.1 °F /  -12.7 °C -0.6 °F /  -18.1 °C 29.84in /  1010.4hPa West 3.0mph /  4.8km/h 9.0mph /  14.5km/h 64% 0.00in /  0mm
20:50 9.2 °F /  -12.7 °C -0.5 °F /  -18.1 °C 29.84in /  1010.4hPa West 2.0mph /  3.2km/h 9.0mph /  14.5km/h 64% 0.00in /  0mm
20:55 9.2 °F /  -12.7 °C -0.5 °F /  -18.1 °C 29.84in /  1010.4hPa West 1.0mph /  1.6km/h 6.0mph /  9.7km/h 64% 0.00in /  0mm
21:00 9.2 °F /  -12.7 °C -0.5 °F /  -18.1 °C 29.84in /  1010.4hPa WSW 1.0mph /  1.6km/h 6.0mph /  9.7km/h 64% 0.00in /  0mm
21:05 9.2 °F /  -12.7 °C -0.5 °F /  -18.1 °C 29.84in /  1010.4hPa SW 3.0mph /  4.8km/h 6.0mph /  9.7km/h 64% 0.00in /  0mm
21:10 9.2 °F /  -12.7 °C -0.5 °F /  -18.1 °C 29.84in /  1010.4hPa SW 1.0mph /  1.6km/h 6.0mph /  9.7km/h 64% 0.00in /  0mm
21:20 9.3 °F /  -12.6 °C -0.4 °F /  -18 °C 29.84in /  1010.4hPa SW 1.0mph /  1.6km/h 6.0mph /  9.7km/h 64% 0.00in /  0mm
21:25 9.4 °F /  -12.6 °C -0.3 °F /  -17.9 °C 29.84in /  1010.4hPa SW 2.0mph /  3.2km/h 5.0mph /  8km/h 64% 0.00in /  0mm
21:30 9.5 °F /  -12.5 °C -0.2 °F /  -17.9 °C 29.84in /  1010.4hPa West 2.0mph /  3.2km/h 9.0mph /  14.5km/h 64% 0.00in /  0mm
21:40 9.8 °F /  -12.3 °C -0.3 °F /  -17.9 °C 29.84in /  1010.4hPa WSW 3.0mph /  4.8km/h 8.0mph /  12.9km/h 63% 0.00in /  0mm
21:45 9.9 °F /  -12.3 °C -0.2 °F /  -17.9 °C 29.84in /  1010.4hPa WSW 3.0mph /  4.8km/h 8.0mph /  12.9km/h 63% 0.00in /  0mm
21:50 9.9 °F /  -12.3 °C 0.2 °F /  -17.7 °C 29.84in /  1010.4hPa WSW 1.0mph /  1.6km/h 8.0mph /  12.9km/h 64% 0.00in /  0mm
22:00 9.9 °F /  -12.3 °C 0.2 °F /  -17.7 °C 29.84in /  1010.4hPa WSW 2.0mph /  3.2km/h 7.0mph /  11.3km/h 64% 0.00in /  0mm
22:05 9.9 °F /  -12.3 °C 0.5 °F /  -17.5 °C 29.84in /  1010.4hPa WSW 1.0mph /  1.6km/h 7.0mph /  11.3km/h 65% 0.00in /  0mm
22:15 10.2 °F /  -12.1 °C 0.8 °F /  -17.3 °C 29.83in /  1010hPa WSW 5.0mph /  8km/h 9.0mph /  14.5km/h 65% 0.00in /  0mm
22:20 10.3 °F /  -12.1 °C 0.5 °F /  -17.5 °C 29.83in /  1010hPa WSW 4.0mph /  6.4km/h 9.0mph /  14.5km/h 64% 0.00in /  0mm
22:25 10.4 °F /  -12 °C 1.0 °F /  -17.2 °C 29.83in /  1010hPa SW 5.0mph /  8km/h 8.0mph /  12.9km/h 65% 0.00in /  0mm
22:35 10.5 °F /  -11.9 °C 1.1 °F /  -17.2 °C 29.83in /  1010hPa West 3.0mph /  4.8km/h 9.0mph /  14.5km/h 65% 0.00in /  0mm
22:40 10.6 °F /  -11.9 °C 1.2 °F /  -17.1 °C 29.83in /  1010hPa WSW 2.0mph /  3.2km/h 9.0mph /  14.5km/h 65% 0.00in /  0mm
22:50 10.9 °F /  -11.7 °C 1.4 °F /  -17 °C 29.83in /  1010hPa West 4.0mph /  6.4km/h 10.0mph /  16.1km/h 65% 0.00in /  0mm
22:55 10.9 °F /  -11.7 °C 1.4 °F /  -17 °C 29.83in /  1010hPa West 3.0mph /  4.8km/h 10.0mph /  16.1km/h 65% 0.00in /  0mm
23:00 11.0 °F /  -11.7 °C 1.5 °F /  -16.9 °C 29.83in /  1010hPa West 3.0mph /  4.8km/h 7.0mph /  11.3km/h 65% 0.00in /  0mm
23:05 11.0 °F /  -11.7 °C 1.5 °F /  -16.9 °C 29.83in /  1010hPa West 1.0mph /  1.6km/h 7.0mph /  11.3km/h 65% 0.00in /  0mm
23:10 11.1 °F /  -11.6 °C 1.6 °F /  -16.9 °C 29.83in /  1010hPa WSW 5.0mph /  8km/h 7.0mph /  11.3km/h 65% 0.00in /  0mm
23:15 11.2 °F /  -11.6 °C 1.7 °F /  -16.8 °C 29.83in /  1010hPa WSW 6.0mph /  9.7km/h 9.0mph /  14.5km/h 65% 0.00in /  0mm
23:20 11.2 °F /  -11.6 °C 2.1 °F /  -16.6 °C 29.83in /  1010hPa SW 3.0mph /  4.8km/h 9.0mph /  14.5km/h 66% 0.00in /  0mm
23:25 11.3 °F /  -11.5 °C 1.8 °F /  -16.8 °C 29.82in /  1009.7hPa West 4.0mph /  6.4km/h 8.0mph /  12.9km/h 65% 0.00in /  0mm
23:30 11.3 °F /  -11.5 °C 1.8 °F /  -16.8 °C 29.82in /  1009.7hPa West 2.0mph /  3.2km/h 9.0mph /  14.5km/h 65% 0.00in /  0mm
23:35 11.4 °F /  -11.4 °C 1.9 °F /  -16.7 °C 29.82in /  1009.7hPa West 4.0mph /  6.4km/h 9.0mph /  14.5km/h 65% 0.00in /  0mm
23:45 11.6 °F /  -11.3 °C 1.8 °F /  -16.8 °C 29.82in /  1009.7hPa WSW 3.0mph /  4.8km/h 9.0mph /  14.5km/h 64% 0.00in /  0mm
23:50 11.7 °F /  -11.3 °C 1.9 °F /  -16.7 °C 29.82in /  1009.7hPa West 4.0mph /  6.4km/h 9.0mph /  14.5km/h 64% 0.00in /  0mm
23:55 11.8 °F /  -11.2 °C 2.0 °F /  -16.7 °C 29.82in /  1009.7hPa WSW 5.0mph /  8km/h 10.0mph /  16.1km/h 64% 0.00in /  0mm
Westford Weather
Compliments of Weather Underground

 
 
Current Radar Loop:

Copyright © WestfordWeather.net 2007-2014. All rights reserved.